sensor_id;sensor_type;location;lat;lon;timestamp;P1;durP1;ratioP1;P2;durP2;ratioP2
21927;SDS011;11128;51.096;17.190;2023-07-16T00:03:32;5.30;;;3.45;;
21927;SDS011;11128;51.096;17.190;2023-07-16T00:08:34;3.22;;;2.92;;
21927;SDS011;11128;51.096;17.190;2023-07-16T00:13:35;4.47;;;3.40;;
21927;SDS011;11128;51.096;17.190;2023-07-16T00:18:37;3.38;;;2.92;;
21927;SDS011;11128;51.096;17.190;2023-07-16T00:23:38;4.10;;;2.72;;
21927;SDS011;11128;51.096;17.190;2023-07-16T00:28:39;3.72;;;2.78;;
21927;SDS011;11128;51.096;17.190;2023-07-16T00:33:41;5.35;;;3.03;;
21927;SDS011;11128;51.096;17.190;2023-07-16T00:38:42;5.20;;;3.30;;
21927;SDS011;11128;51.096;17.190;2023-07-16T00:43:46;4.13;;;2.90;;
21927;SDS011;11128;51.096;17.190;2023-07-16T00:48:47;4.25;;;3.30;;
21927;SDS011;11128;51.096;17.190;2023-07-16T00:53:48;3.40;;;2.85;;
21927;SDS011;11128;51.096;17.190;2023-07-16T00:58:50;4.10;;;3.25;;
21927;SDS011;11128;51.096;17.190;2023-07-16T01:03:51;3.28;;;2.72;;
21927;SDS011;11128;51.096;17.190;2023-07-16T01:08:55;5.28;;;3.35;;
21927;SDS011;11128;51.096;17.190;2023-07-16T01:14:02;3.58;;;2.78;;
21927;SDS011;11128;51.096;17.190;2023-07-16T01:19:04;6.85;;;3.10;;
21927;SDS011;11128;51.096;17.190;2023-07-16T01:29:49;3.97;;;3.15;;
21927;SDS011;11128;51.096;17.190;2023-07-16T01:34:54;5.15;;;2.47;;
21927;SDS011;11128;51.096;17.190;2023-07-16T01:39:56;3.58;;;2.65;;
21927;SDS011;11128;51.096;17.190;2023-07-16T01:44:58;5.63;;;2.85;;
21927;SDS011;11128;51.096;17.190;2023-07-16T01:49:59;4.55;;;3.00;;
21927;SDS011;11128;51.096;17.190;2023-07-16T01:55:00;4.13;;;3.00;;
21927;SDS011;11128;51.096;17.190;2023-07-16T02:00:01;3.53;;;2.63;;
21927;SDS011;11128;51.096;17.190;2023-07-16T02:05:03;4.78;;;2.67;;
21927;SDS011;11128;51.096;17.190;2023-07-16T02:10:05;2.97;;;2.50;;
21927;SDS011;11128;51.096;17.190;2023-07-16T02:15:06;4.97;;;3.05;;
21927;SDS011;11128;51.096;17.190;2023-07-16T02:20:08;3.35;;;2.38;;
21927;SDS011;11128;51.096;17.190;2023-07-16T02:25:11;6.63;;;3.10;;
21927;SDS011;11128;51.096;17.190;2023-07-16T02:30:13;5.45;;;3.50;;
21927;SDS011;11128;51.096;17.190;2023-07-16T02:35:15;4.65;;;3.22;;
21927;SDS011;11128;51.096;17.190;2023-07-16T02:40:16;7.15;;;3.35;;
21927;SDS011;11128;51.096;17.190;2023-07-16T02:45:18;4.30;;;2.85;;
21927;SDS011;11128;51.096;17.190;2023-07-16T02:50:19;6.43;;;3.25;;
21927;SDS011;11128;51.096;17.190;2023-07-16T02:55:20;6.80;;;3.17;;
21927;SDS011;11128;51.096;17.190;2023-07-16T03:00:22;6.32;;;3.25;;
21927;SDS011;11128;51.096;17.190;2023-07-16T03:05:24;6.05;;;2.90;;
21927;SDS011;11128;51.096;17.190;2023-07-16T03:10:26;7.10;;;3.35;;
21927;SDS011;11128;51.096;17.190;2023-07-16T03:15:27;4.38;;;2.65;;
21927;SDS011;11128;51.096;17.190;2023-07-16T03:20:29;3.22;;;2.70;;
21927;SDS011;11128;51.096;17.190;2023-07-16T03:25:30;3.72;;;2.75;;
21927;SDS011;11128;51.096;17.190;2023-07-16T03:30:31;4.45;;;2.80;;
21927;SDS011;11128;51.096;17.190;2023-07-16T03:35:33;6.00;;;3.10;;
21927;SDS011;11128;51.096;17.190;2023-07-16T03:40:35;4.18;;;3.03;;
21927;SDS011;11128;51.096;17.190;2023-07-16T03:45:36;4.65;;;3.13;;
21927;SDS011;11128;51.096;17.190;2023-07-16T03:50:38;3.58;;;2.92;;
21927;SDS011;11128;51.096;17.190;2023-07-16T03:55:39;3.95;;;3.10;;
21927;SDS011;11128;51.096;17.190;2023-07-16T04:00:41;4.45;;;3.38;;
21927;SDS011;11128;51.096;17.190;2023-07-16T04:05:42;5.05;;;2.80;;
21927;SDS011;11128;51.096;17.190;2023-07-16T04:10:43;4.53;;;2.97;;
21927;SDS011;11128;51.096;17.190;2023-07-16T04:15:45;3.92;;;2.80;;
21927;SDS011;11128;51.096;17.190;2023-07-16T04:20:46;4.57;;;2.70;;
21927;SDS011;11128;51.096;17.190;2023-07-16T04:25:50;6.03;;;3.25;;
21927;SDS011;11128;51.096;17.190;2023-07-16T04:30:53;3.92;;;2.90;;
21927;SDS011;11128;51.096;17.190;2023-07-16T04:35:55;3.08;;;2.78;;
21927;SDS011;11128;51.096;17.190;2023-07-16T04:40:58;3.63;;;2.70;;
21927;SDS011;11128;51.096;17.190;2023-07-16T04:45:59;3.35;;;2.78;;
21927;SDS011;11128;51.096;17.190;2023-07-16T04:51:00;4.28;;;2.58;;
21927;SDS011;11128;51.096;17.190;2023-07-16T05:01:02;7.80;;;3.22;;
21927;SDS011;11128;51.096;17.190;2023-07-16T05:06:03;4.57;;;2.25;;
21927;SDS011;11128;51.096;17.190;2023-07-16T05:11:04;3.80;;;2.58;;
21927;SDS011;11128;51.096;17.190;2023-07-16T05:16:06;3.85;;;2.40;;
21927;SDS011;11128;51.096;17.190;2023-07-16T05:21:07;3.00;;;2.30;;
21927;SDS011;11128;51.096;17.190;2023-07-16T05:26:08;4.32;;;2.08;;
21927;SDS011;11128;51.096;17.190;2023-07-16T05:31:10;3.15;;;2.55;;
21927;SDS011;11128;51.096;17.190;2023-07-16T05:36:11;3.95;;;2.55;;
21927;SDS011;11128;51.096;17.190;2023-07-16T05:41:12;3.33;;;2.33;;
21927;SDS011;11128;51.096;17.190;2023-07-16T05:46:13;3.83;;;2.28;;
21927;SDS011;11128;51.096;17.190;2023-07-16T05:51:15;3.50;;;2.38;;
21927;SDS011;11128;51.096;17.190;2023-07-16T05:56:16;2.53;;;2.30;;
21927;SDS011;11128;51.096;17.190;2023-07-16T06:01:17;4.80;;;1.92;;
21927;SDS011;11128;51.096;17.190;2023-07-16T06:06:18;4.60;;;2.35;;
21927;SDS011;11128;51.096;17.190;2023-07-16T06:11:20;2.78;;;2.22;;
21927;SDS011;11128;51.096;17.190;2023-07-16T06:16:21;3.53;;;2.00;;
21927;SDS011;11128;51.096;17.190;2023-07-16T06:21:23;2.88;;;1.80;;
21927;SDS011;11128;51.096;17.190;2023-07-16T06:26:24;2.55;;;1.50;;
21927;SDS011;11128;51.096;17.190;2023-07-16T06:31:25;2.35;;;1.80;;
21927;SDS011;11128;51.096;17.190;2023-07-16T06:36:27;1.77;;;1.48;;
21927;SDS011;11128;51.096;17.190;2023-07-16T06:41:28;2.80;;;1.40;;
21927;SDS011;11128;51.096;17.190;2023-07-16T06:46:31;1.67;;;1.42;;
21927;SDS011;11128;51.096;17.190;2023-07-16T06:51:32;2.50;;;1.70;;
21927;SDS011;11128;51.096;17.190;2023-07-16T06:56:33;1.48;;;1.38;;
21927;SDS011;11128;51.096;17.190;2023-07-16T07:01:35;1.83;;;1.42;;
21927;SDS011;11128;51.096;17.190;2023-07-16T07:06:36;1.90;;;1.50;;
21927;SDS011;11128;51.096;17.190;2023-07-16T07:11:37;3.83;;;1.38;;
21927;SDS011;11128;51.096;17.190;2023-07-16T07:16:38;4.82;;;1.30;;
21927;SDS011;11128;51.096;17.190;2023-07-16T07:21:40;2.05;;;1.33;;
21927;SDS011;11128;51.096;17.190;2023-07-16T07:26:42;1.55;;;1.27;;
21927;SDS011;11128;51.096;17.190;2023-07-16T07:31:43;6.07;;;1.05;;
21927;SDS011;11128;51.096;17.190;2023-07-16T07:36:45;1.05;;;0.98;;
21927;SDS011;11128;51.096;17.190;2023-07-16T07:41:47;2.53;;;1.20;;
21927;SDS011;11128;51.096;17.190;2023-07-16T07:46:48;1.20;;;1.10;;
21927;SDS011;11128;51.096;17.190;2023-07-16T07:51:49;2.53;;;0.93;;
21927;SDS011;11128;51.096;17.190;2023-07-16T07:56:51;2.58;;;0.90;;
21927;SDS011;11128;51.096;17.190;2023-07-16T08:01:52;1.45;;;0.85;;
21927;SDS011;11128;51.096;17.190;2023-07-16T08:06:53;2.20;;;1.10;;
21927;SDS011;11128;51.096;17.190;2023-07-16T08:11:55;1.45;;;1.10;;
21927;SDS011;11128;51.096;17.190;2023-07-16T08:16:56;1.42;;;0.90;;
21927;SDS011;11128;51.096;17.190;2023-07-16T08:21:57;1.05;;;0.90;;
21927;SDS011;11128;51.096;17.190;2023-07-16T08:26:59;1.75;;;0.85;;
21927;SDS011;11128;51.096;17.190;2023-07-16T08:32:00;1.33;;;1.02;;
21927;SDS011;11128;51.096;17.190;2023-07-16T08:37:01;1.48;;;0.80;;
21927;SDS011;11128;51.096;17.190;2023-07-16T08:42:03;0.82;;;0.82;;
21927;SDS011;11128;51.096;17.190;2023-07-16T08:47:05;1.88;;;0.80;;
21927;SDS011;11128;51.096;17.190;2023-07-16T08:52:07;1.55;;;0.90;;
21927;SDS011;11128;51.096;17.190;2023-07-16T08:57:11;1.02;;;0.77;;
21927;SDS011;11128;51.096;17.190;2023-07-16T09:02:14;1.20;;;1.10;;
21927;SDS011;11128;51.096;17.190;2023-07-16T09:07:19;0.80;;;0.80;;
21927;SDS011;11128;51.096;17.190;2023-07-16T09:12:20;1.13;;;1.02;;
21927;SDS011;11128;51.096;17.190;2023-07-16T09:17:25;2.25;;;1.25;;
21927;SDS011;11128;51.096;17.190;2023-07-16T09:22:26;1.27;;;0.82;;
21927;SDS011;11128;51.096;17.190;2023-07-16T09:27:30;1.10;;;0.98;;
21927;SDS011;11128;51.096;17.190;2023-07-16T09:32:35;1.10;;;1.00;;
21927;SDS011;11128;51.096;17.190;2023-07-16T09:37:40;1.25;;;1.10;;
21927;SDS011;11128;51.096;17.190;2023-07-16T09:42:42;1.50;;;1.20;;
21927;SDS011;11128;51.096;17.190;2023-07-16T09:47:44;1.55;;;1.17;;
21927;SDS011;11128;51.096;17.190;2023-07-16T09:52:46;1.33;;;1.05;;
21927;SDS011;11128;51.096;17.190;2023-07-16T09:57:48;1.35;;;1.00;;
21927;SDS011;11128;51.096;17.190;2023-07-16T10:02:51;3.70;;;1.05;;
21927;SDS011;11128;51.096;17.190;2023-07-16T10:07:56;1.30;;;1.00;;
21927;SDS011;11128;51.096;17.190;2023-07-16T10:13:01;0.85;;;0.85;;
21927;SDS011;11128;51.096;17.190;2023-07-16T10:18:03;1.13;;;1.08;;
21927;SDS011;11128;51.096;17.190;2023-07-16T10:23:11;3.03;;;1.20;;
21927;SDS011;11128;51.096;17.190;2023-07-16T10:28:13;3.85;;;1.60;;
21927;SDS011;11128;51.096;17.190;2023-07-16T10:33:15;1.20;;;1.10;;
21927;SDS011;11128;51.096;17.190;2023-07-16T10:38:16;1.02;;;0.95;;
21927;SDS011;11128;51.096;17.190;2023-07-16T10:43:18;1.67;;;1.30;;
21927;SDS011;11128;51.096;17.190;2023-07-16T10:48:24;2.10;;;1.05;;
21927;SDS011;11128;51.096;17.190;2023-07-16T10:53:25;1.00;;;1.00;;
21927;SDS011;11128;51.096;17.190;2023-07-16T10:58:27;1.73;;;1.25;;
21927;SDS011;11128;51.096;17.190;2023-07-16T11:03:28;1.08;;;0.98;;
21927;SDS011;11128;51.096;17.190;2023-07-16T11:08:29;1.70;;;1.25;;
21927;SDS011;11128;51.096;17.190;2023-07-16T11:13:31;1.10;;;0.90;;
21927;SDS011;11128;51.096;17.190;2023-07-16T11:18:35;1.15;;;1.05;;
21927;SDS011;11128;51.096;17.190;2023-07-16T11:23:37;1.33;;;1.10;;
21927;SDS011;11128;51.096;17.190;2023-07-16T11:28:39;2.28;;;0.93;;
21927;SDS011;11128;51.096;17.190;2023-07-16T11:33:42;1.05;;;1.02;;
21927;SDS011;11128;51.096;17.190;2023-07-16T11:38:44;2.10;;;1.25;;
21927;SDS011;11128;51.096;17.190;2023-07-16T11:43:46;1.40;;;1.17;;
21927;SDS011;11128;51.096;17.190;2023-07-16T11:48:48;2.08;;;1.08;;
21927;SDS011;11128;51.096;17.190;2023-07-16T11:53:49;2.38;;;0.95;;
21927;SDS011;11128;51.096;17.190;2023-07-16T11:58:50;1.23;;;1.00;;
21927;SDS011;11128;51.096;17.190;2023-07-16T12:03:52;1.15;;;0.90;;
21927;SDS011;11128;51.096;17.190;2023-07-16T12:08:53;1.10;;;1.00;;
21927;SDS011;11128;51.096;17.190;2023-07-16T12:13:55;1.05;;;0.80;;
21927;SDS011;11128;51.096;17.190;2023-07-16T12:18:57;0.88;;;0.85;;
21927;SDS011;11128;51.096;17.190;2023-07-16T12:23:58;2.05;;;0.88;;
21927;SDS011;11128;51.096;17.190;2023-07-16T12:29:03;1.40;;;0.50;;
21927;SDS011;11128;51.096;17.190;2023-07-16T12:34:16;0.60;;;0.60;;
21927;SDS011;11128;51.096;17.190;2023-07-16T12:39:23;0.90;;;0.90;;
21927;SDS011;11128;51.096;17.190;2023-07-16T12:44:26;0.98;;;0.90;;
21927;SDS011;11128;51.096;17.190;2023-07-16T12:49:27;1.25;;;1.10;;
21927;SDS011;11128;51.096;17.190;2023-07-16T12:54:29;0.85;;;0.77;;
21927;SDS011;11128;51.096;17.190;2023-07-16T12:59:30;2.03;;;1.30;;
21927;SDS011;11128;51.096;17.190;2023-07-16T13:04:31;0.80;;;0.80;;
21927;SDS011;11128;51.096;17.190;2023-07-16T13:09:32;1.08;;;1.00;;
21927;SDS011;11128;51.096;17.190;2023-07-16T13:14:34;1.00;;;0.90;;
21927;SDS011;11128;51.096;17.190;2023-07-16T13:19:35;1.00;;;0.90;;
21927;SDS011;11128;51.096;17.190;2023-07-16T13:24:37;0.90;;;0.73;;
21927;SDS011;11128;51.096;17.190;2023-07-16T13:29:38;1.70;;;0.90;;
21927;SDS011;11128;51.096;17.190;2023-07-16T13:34:39;1.77;;;0.82;;
21927;SDS011;11128;51.096;17.190;2023-07-16T13:39:41;1.17;;;1.08;;
21927;SDS011;11128;51.096;17.190;2023-07-16T13:44:42;1.80;;;1.02;;
21927;SDS011;11128;51.096;17.190;2023-07-16T13:49:43;1.00;;;0.90;;
21927;SDS011;11128;51.096;17.190;2023-07-16T13:54:44;0.95;;;0.90;;
21927;SDS011;11128;51.096;17.190;2023-07-16T13:59:45;1.88;;;1.13;;
21927;SDS011;11128;51.096;17.190;2023-07-16T14:04:48;1.13;;;0.80;;
21927;SDS011;11128;51.096;17.190;2023-07-16T14:09:49;1.63;;;1.02;;
21927;SDS011;11128;51.096;17.190;2023-07-16T14:14:51;1.30;;;1.05;;
21927;SDS011;11128;51.096;17.190;2023-07-16T14:19:52;1.17;;;1.00;;
21927;SDS011;11128;51.096;17.190;2023-07-16T14:24:53;1.20;;;1.10;;
21927;SDS011;11128;51.096;17.190;2023-07-16T14:29:55;1.02;;;0.90;;
21927;SDS011;11128;51.096;17.190;2023-07-16T14:34:56;2.20;;;1.10;;
21927;SDS011;11128;51.096;17.190;2023-07-16T14:39:57;1.77;;;1.10;;
21927;SDS011;11128;51.096;17.190;2023-07-16T14:44:58;2.22;;;1.20;;
21927;SDS011;11128;51.096;17.190;2023-07-16T14:50:00;1.83;;;1.02;;
21927;SDS011;11128;51.096;17.190;2023-07-16T14:55:09;1.83;;;0.93;;
21927;SDS011;11128;51.096;17.190;2023-07-16T15:00:20;2.67;;;1.13;;
21927;SDS011;11128;51.096;17.190;2023-07-16T15:05:29;1.20;;;1.10;;
21927;SDS011;11128;51.096;17.190;2023-07-16T15:10:43;1.17;;;1.08;;
21927;SDS011;11128;51.096;17.190;2023-07-16T15:15:48;3.13;;;1.00;;
21927;SDS011;11128;51.096;17.190;2023-07-16T15:21:00;1.27;;;1.17;;
21927;SDS011;11128;51.096;17.190;2023-07-16T15:26:04;0.93;;;0.93;;
21927;SDS011;11128;51.096;17.190;2023-07-16T15:31:09;1.40;;;1.08;;
21927;SDS011;11128;51.096;17.190;2023-07-16T15:36:12;1.90;;;1.40;;
21927;SDS011;11128;51.096;17.190;2023-07-16T15:41:18;0.93;;;0.93;;
21927;SDS011;11128;51.096;17.190;2023-07-16T15:46:20;2.75;;;1.30;;
21927;SDS011;11128;51.096;17.190;2023-07-16T15:51:22;1.65;;;1.42;;
21927;SDS011;11128;51.096;17.190;2023-07-16T15:56:23;2.40;;;1.30;;
21927;SDS011;11128;51.096;17.190;2023-07-16T16:01:26;1.48;;;1.38;;
21927;SDS011;11128;51.096;17.190;2023-07-16T16:06:28;7.40;;;4.68;;
21927;SDS011;11128;51.096;17.190;2023-07-16T16:11:29;2.50;;;1.80;;
21927;SDS011;11128;51.096;17.190;2023-07-16T16:16:31;1.33;;;1.15;;
21927;SDS011;11128;51.096;17.190;2023-07-16T16:21:32;2.22;;;1.10;;
21927;SDS011;11128;51.096;17.190;2023-07-16T16:26:34;1.20;;;1.10;;
21927;SDS011;11128;51.096;17.190;2023-07-16T16:31:36;1.23;;;1.08;;
21927;SDS011;11128;51.096;17.190;2023-07-16T16:36:37;1.48;;;1.20;;
21927;SDS011;11128;51.096;17.190;2023-07-16T16:41:38;1.67;;;1.30;;
21927;SDS011;11128;51.096;17.190;2023-07-16T16:46:39;2.05;;;1.20;;
21927;SDS011;11128;51.096;17.190;2023-07-16T16:51:41;1.98;;;1.40;;
21927;SDS011;11128;51.096;17.190;2023-07-16T16:56:42;1.30;;;1.20;;
21927;SDS011;11128;51.096;17.190;2023-07-16T17:01:44;1.65;;;1.30;;
21927;SDS011;11128;51.096;17.190;2023-07-16T17:06:45;2.20;;;1.30;;
21927;SDS011;11128;51.096;17.190;2023-07-16T17:11:46;1.60;;;1.10;;
21927;SDS011;11128;51.096;17.190;2023-07-16T17:16:48;2.97;;;2.22;;
21927;SDS011;11128;51.096;17.190;2023-07-16T17:21:49;3.83;;;2.03;;
21927;SDS011;11128;51.096;17.190;2023-07-16T17:26:50;2.72;;;2.13;;
21927;SDS011;11128;51.096;17.190;2023-07-16T17:31:52;2.40;;;2.20;;
21927;SDS011;11128;51.096;17.190;2023-07-16T17:36:53;1.88;;;1.70;;
21927;SDS011;11128;51.096;17.190;2023-07-16T17:41:54;1.85;;;1.70;;
21927;SDS011;11128;51.096;17.190;2023-07-16T17:46:56;2.58;;;1.40;;
21927;SDS011;11128;51.096;17.190;2023-07-16T17:51:58;3.35;;;2.00;;
21927;SDS011;11128;51.096;17.190;2023-07-16T17:57:00;2.30;;;1.75;;
21927;SDS011;11128;51.096;17.190;2023-07-16T18:02:01;7.60;;;4.53;;
21927;SDS011;11128;51.096;17.190;2023-07-16T18:07:03;16.25;;;14.02;;
21927;SDS011;11128;51.096;17.190;2023-07-16T18:12:05;9.07;;;7.72;;
21927;SDS011;11128;51.096;17.190;2023-07-16T18:17:07;7.90;;;6.53;;
21927;SDS011;11128;51.096;17.190;2023-07-16T18:22:09;11.27;;;8.38;;
21927;SDS011;11128;51.096;17.190;2023-07-16T18:27:10;6.35;;;4.85;;
21927;SDS011;11128;51.096;17.190;2023-07-16T18:32:12;5.22;;;4.30;;
21927;SDS011;11128;51.096;17.190;2023-07-16T18:37:13;5.60;;;3.90;;
21927;SDS011;11128;51.096;17.190;2023-07-16T18:42:14;5.38;;;3.70;;
21927;SDS011;11128;51.096;17.190;2023-07-16T18:47:15;3.17;;;2.83;;
21927;SDS011;11128;51.096;17.190;2023-07-16T18:52:17;1.58;;;1.48;;
21927;SDS011;11128;51.096;17.190;2023-07-16T18:57:19;2.17;;;1.40;;
21927;SDS011;11128;51.096;17.190;2023-07-16T19:02:20;1.67;;;1.38;;
21927;SDS011;11128;51.096;17.190;2023-07-16T19:07:21;2.83;;;1.55;;
21927;SDS011;11128;51.096;17.190;2023-07-16T19:12:24;3.40;;;2.35;;
21927;SDS011;11128;51.096;17.190;2023-07-16T19:17:27;3.35;;;2.30;;
21927;SDS011;11128;51.096;17.190;2023-07-16T19:22:29;3.35;;;2.42;;
21927;SDS011;11128;51.096;17.190;2023-07-16T19:27:30;3.50;;;1.95;;
21927;SDS011;11128;51.096;17.190;2023-07-16T19:32:33;6.85;;;2.38;;
21927;SDS011;11128;51.096;17.190;2023-07-16T19:37:34;2.50;;;2.30;;
21927;SDS011;11128;51.096;17.190;2023-07-16T19:42:36;3.83;;;2.33;;
21927;SDS011;11128;51.096;17.190;2023-07-16T19:47:37;2.28;;;1.92;;
21927;SDS011;11128;51.096;17.190;2023-07-16T19:52:40;2.15;;;1.95;;
21927;SDS011;11128;51.096;17.190;2023-07-16T19:57:41;4.47;;;1.95;;
21927;SDS011;11128;51.096;17.190;2023-07-16T20:02:43;4.03;;;2.15;;
21927;SDS011;11128;51.096;17.190;2023-07-16T20:07:46;4.72;;;2.10;;
21927;SDS011;11128;51.096;17.190;2023-07-16T20:12:48;5.72;;;2.80;;
21927;SDS011;11128;51.096;17.190;2023-07-16T20:17:51;6.28;;;2.63;;
21927;SDS011;11128;51.096;17.190;2023-07-16T20:22:52;4.80;;;2.83;;
21927;SDS011;11128;51.096;17.190;2023-07-16T20:27:56;5.13;;;2.80;;
21927;SDS011;11128;51.096;17.190;2023-07-16T20:32:57;3.83;;;2.50;;
21927;SDS011;11128;51.096;17.190;2023-07-16T20:38:00;4.40;;;2.40;;
21927;SDS011;11128;51.096;17.190;2023-07-16T20:43:02;4.07;;;1.98;;
21927;SDS011;11128;51.096;17.190;2023-07-16T20:48:04;7.97;;;2.80;;
21927;SDS011;11128;51.096;17.190;2023-07-16T20:53:06;7.68;;;2.60;;
21927;SDS011;11128;51.096;17.190;2023-07-16T20:58:08;3.80;;;2.40;;
21927;SDS011;11128;51.096;17.190;2023-07-16T21:03:09;6.30;;;2.80;;
21927;SDS011;11128;51.096;17.190;2023-07-16T21:08:10;3.90;;;2.63;;
21927;SDS011;11128;51.096;17.190;2023-07-16T21:13:11;3.70;;;2.47;;
21927;SDS011;11128;51.096;17.190;2023-07-16T21:18:13;3.22;;;2.33;;
21927;SDS011;11128;51.096;17.190;2023-07-16T21:23:21;6.70;;;2.28;;
21927;SDS011;11128;51.096;17.190;2023-07-16T21:28:26;3.35;;;2.70;;
21927;SDS011;11128;51.096;17.190;2023-07-16T21:33:28;3.33;;;2.30;;
21927;SDS011;11128;51.096;17.190;2023-07-16T21:38:29;3.80;;;2.70;;
21927;SDS011;11128;51.096;17.190;2023-07-16T21:43:30;5.72;;;2.17;;
21927;SDS011;11128;51.096;17.190;2023-07-16T21:48:32;3.72;;;2.80;;
21927;SDS011;11128;51.096;17.190;2023-07-16T21:53:33;4.82;;;2.70;;
21927;SDS011;11128;51.096;17.190;2023-07-16T21:58:34;3.55;;;2.25;;
21927;SDS011;11128;51.096;17.190;2023-07-16T22:03:36;3.70;;;2.40;;
21927;SDS011;11128;51.096;17.190;2023-07-16T22:08:37;3.83;;;2.70;;
21927;SDS011;11128;51.096;17.190;2023-07-16T22:13:39;4.47;;;2.47;;
21927;SDS011;11128;51.096;17.190;2023-07-16T22:18:40;3.40;;;2.67;;
21927;SDS011;11128;51.096;17.190;2023-07-16T22:23:41;3.15;;;2.30;;
21927;SDS011;11128;51.096;17.190;2023-07-16T22:28:43;3.67;;;2.58;;
21927;SDS011;11128;51.096;17.190;2023-07-16T22:33:44;2.95;;;2.50;;
21927;SDS011;11128;51.096;17.190;2023-07-16T22:38:46;3.97;;;2.60;;
21927;SDS011;11128;51.096;17.190;2023-07-16T22:43:47;5.00;;;2.72;;
21927;SDS011;11128;51.096;17.190;2023-07-16T22:48:49;2.58;;;2.38;;
21927;SDS011;11128;51.096;17.190;2023-07-16T22:53:53;2.92;;;2.13;;
21927;SDS011;11128;51.096;17.190;2023-07-16T22:58:55;2.90;;;2.20;;
21927;SDS011;11128;51.096;17.190;2023-07-16T23:03:56;4.18;;;2.10;;
21927;SDS011;11128;51.096;17.190;2023-07-16T23:08:58;4.05;;;2.15;;
21927;SDS011;11128;51.096;17.190;2023-07-16T23:13:59;4.88;;;2.40;;
21927;SDS011;11128;51.096;17.190;2023-07-16T23:19:00;3.28;;;1.88;;
21927;SDS011;11128;51.096;17.190;2023-07-16T23:24:03;3.33;;;1.92;;
21927;SDS011;11128;51.096;17.190;2023-07-16T23:29:05;2.83;;;2.05;;
21927;SDS011;11128;51.096;17.190;2023-07-16T23:34:06;4.78;;;2.25;;
21927;SDS011;11128;51.096;17.190;2023-07-16T23:39:07;2.80;;;1.75;;
21927;SDS011;11128;51.096;17.190;2023-07-16T23:44:09;2.33;;;1.75;;
21927;SDS011;11128;51.096;17.190;2023-07-16T23:49:10;2.72;;;1.73;;
21927;SDS011;11128;51.096;17.190;2023-07-16T23:54:11;2.72;;;2.08;;
21927;SDS011;11128;51.096;17.190;2023-07-16T23:59:13;2.90;;;2.20;;
